sensor_id;sensor_type;location;lat;lon;timestamp;P1;durP1;ratioP1;P2;durP2;ratioP2
32250;SDS011;41295;48.518;9.206;2023-05-21T15:07:51;15.00;;;10.13;;
32250;SDS011;41295;48.518;9.206;2023-05-21T15:09:56;16.90;;;11.55;;
32250;SDS011;41295;48.518;9.206;2023-05-21T15:11:59;24.00;;;13.18;;
32250;SDS011;41295;48.518;9.206;2023-05-21T15:14:01;19.65;;;11.85;;
32250;SDS011;41295;48.518;9.206;2023-05-21T15:16:04;17.30;;;11.02;;
32250;SDS011;41295;48.518;9.206;2023-05-21T15:18:07;18.83;;;11.10;;
32250;SDS011;41295;48.518;9.206;2023-05-21T15:20:10;14.80;;;10.90;;
32250;SDS011;41295;48.518;9.206;2023-05-21T15:22:13;15.23;;;10.18;;
32250;SDS011;41295;48.518;9.206;2023-05-21T15:24:16;16.98;;;8.90;;
32250;SDS011;41295;48.518;9.206;2023-05-21T15:26:19;11.80;;;9.85;;
32250;SDS011;41295;48.518;9.206;2023-05-21T15:28:22;13.70;;;9.73;;
32250;SDS011;41295;48.518;9.206;2023-05-21T15:30:25;16.92;;;10.13;;
32250;SDS011;41295;48.518;9.206;2023-05-21T15:32:28;17.08;;;9.60;;
32250;SDS011;41295;48.518;9.206;2023-05-21T15:34:31;14.45;;;9.30;;
32250;SDS011;41295;48.518;9.206;2023-05-21T15:36:34;12.65;;;9.57;;
32250;SDS011;41295;48.518;9.206;2023-05-21T15:38:37;11.35;;;8.88;;
32250;SDS011;41295;48.518;9.206;2023-05-21T15:40:41;19.00;;;8.73;;
32250;SDS011;41295;48.518;9.206;2023-05-21T15:42:44;13.00;;;8.25;;
32250;SDS011;41295;48.518;9.206;2023-05-21T15:44:47;12.60;;;8.20;;
32250;SDS011;41295;48.518;9.206;2023-05-21T15:46:49;14.32;;;8.75;;
32250;SDS011;41295;48.518;9.206;2023-05-21T15:48:53;15.48;;;9.60;;
32250;SDS011;41295;48.518;9.206;2023-05-21T15:50:56;13.90;;;8.43;;
32250;SDS011;41295;48.518;9.206;2023-05-21T15:52:59;13.40;;;8.40;;
32250;SDS011;41295;48.518;9.206;2023-05-21T15:55:01;14.13;;;8.68;;
32250;SDS011;41295;48.518;9.206;2023-05-21T15:57:06;12.23;;;8.98;;
32250;SDS011;41295;48.518;9.206;2023-05-21T15:59:08;10.73;;;8.40;;
32250;SDS011;41295;48.518;9.206;2023-05-21T16:01:11;20.52;;;9.02;;
32250;SDS011;41295;48.518;9.206;2023-05-21T16:03:14;15.20;;;8.75;;
32250;SDS011;41295;48.518;9.206;2023-05-21T16:05:16;12.90;;;8.13;;
32250;SDS011;41295;48.518;9.206;2023-05-21T16:07:21;12.60;;;7.97;;
32250;SDS011;41295;48.518;9.206;2023-05-21T16:09:24;11.00;;;7.85;;
32250;SDS011;41295;48.518;9.206;2023-05-21T16:11:28;14.20;;;7.32;;
32250;SDS011;41295;48.518;9.206;2023-05-21T16:13:32;9.43;;;7.25;;
32250;SDS011;41295;48.518;9.206;2023-05-21T16:15:35;11.32;;;7.78;;
32250;SDS011;41295;48.518;9.206;2023-05-21T16:17:38;9.48;;;7.32;;
32250;SDS011;41295;48.518;9.206;2023-05-21T16:19:41;10.30;;;7.50;;
32250;SDS011;41295;48.518;9.206;2023-05-21T16:21:43;11.85;;;7.70;;
32250;SDS011;41295;48.518;9.206;2023-05-21T16:23:46;11.65;;;8.55;;
32250;SDS011;41295;48.518;9.206;2023-05-21T16:25:49;15.77;;;10.13;;
32250;SDS011;41295;48.518;9.206;2023-05-21T16:27:51;10.63;;;8.32;;
32250;SDS011;41295;48.518;9.206;2023-05-21T16:29:55;18.55;;;8.90;;
32250;SDS011;41295;48.518;9.206;2023-05-21T16:31:58;17.20;;;9.50;;
32250;SDS011;41295;48.518;9.206;2023-05-21T16:34:01;12.95;;;7.75;;
32250;SDS011;41295;48.518;9.206;2023-05-21T16:36:04;12.02;;;9.05;;
32250;SDS011;41295;48.518;9.206;2023-05-21T16:38:07;11.70;;;7.85;;
32250;SDS011;41295;48.518;9.206;2023-05-21T16:40:12;12.07;;;7.93;;
32250;SDS011;41295;48.518;9.206;2023-05-21T16:42:14;11.35;;;7.88;;
32250;SDS011;41295;48.518;9.206;2023-05-21T16:44:17;11.07;;;8.07;;
32250;SDS011;41295;48.518;9.206;2023-05-21T16:46:21;13.75;;;7.60;;
32250;SDS011;41295;48.518;9.206;2023-05-21T16:48:26;13.00;;;7.78;;
32250;SDS011;41295;48.518;9.206;2023-05-21T16:50:29;13.32;;;8.30;;
32250;SDS011;41295;48.518;9.206;2023-05-21T16:52:31;9.57;;;7.63;;
32250;SDS011;41295;48.518;9.206;2023-05-21T16:54:34;10.80;;;7.70;;
32250;SDS011;41295;48.518;9.206;2023-05-21T16:56:37;12.48;;;7.50;;
32250;SDS011;41295;48.518;9.206;2023-05-21T16:58:39;12.05;;;8.00;;
32250;SDS011;41295;48.518;9.206;2023-05-21T17:00:42;12.45;;;7.60;;
32250;SDS011;41295;48.518;9.206;2023-05-21T17:02:47;12.35;;;7.57;;
32250;SDS011;41295;48.518;9.206;2023-05-21T17:04:49;9.77;;;7.10;;
32250;SDS011;41295;48.518;9.206;2023-05-21T17:06:52;10.35;;;7.75;;
32250;SDS011;41295;48.518;9.206;2023-05-21T17:08:55;12.70;;;7.80;;
32250;SDS011;41295;48.518;9.206;2023-05-21T17:10:57;9.80;;;7.57;;
32250;SDS011;41295;48.518;9.206;2023-05-21T17:13:00;12.50;;;7.57;;
32250;SDS011;41295;48.518;9.206;2023-05-21T17:17:24;12.43;;;8.40;;
32250;SDS011;41295;48.518;9.206;2023-05-21T17:19:28;9.93;;;7.75;;
32250;SDS011;41295;48.518;9.206;2023-05-21T17:21:32;13.43;;;8.13;;
32250;SDS011;41295;48.518;9.206;2023-05-21T17:23:34;11.40;;;7.47;;
32250;SDS011;41295;48.518;9.206;2023-05-21T17:25:37;15.40;;;8.50;;
32250;SDS011;41295;48.518;9.206;2023-05-21T17:27:41;11.07;;;6.88;;
32250;SDS011;41295;48.518;9.206;2023-05-21T17:29:43;10.82;;;7.75;;
32250;SDS011;41295;48.518;9.206;2023-05-21T17:31:46;12.23;;;7.68;;
32250;SDS011;41295;48.518;9.206;2023-05-21T17:33:49;19.55;;;8.40;;
32250;SDS011;41295;48.518;9.206;2023-05-21T17:35:53;40.25;;;11.07;;
32250;SDS011;41295;48.518;9.206;2023-05-21T17:37:57;37.80;;;10.93;;
32250;SDS011;41295;48.518;9.206;2023-05-21T17:39:59;31.38;;;10.45;;
32250;SDS011;41295;48.518;9.206;2023-05-21T17:42:05;21.50;;;9.48;;
32250;SDS011;41295;48.518;9.206;2023-05-21T17:44:08;22.92;;;9.50;;
32250;SDS011;41295;48.518;9.206;2023-05-21T17:46:11;21.58;;;9.10;;
32250;SDS011;41295;48.518;9.206;2023-05-21T17:48:16;24.17;;;10.15;;
32250;SDS011;41295;48.518;9.206;2023-05-21T17:50:19;15.18;;;7.80;;
32250;SDS011;41295;48.518;9.206;2023-05-21T17:52:23;12.32;;;8.38;;
32250;SDS011;41295;48.518;9.206;2023-05-21T17:54:27;12.80;;;7.43;;
32250;SDS011;41295;48.518;9.206;2023-05-21T17:56:29;14.43;;;7.40;;
32250;SDS011;41295;48.518;9.206;2023-05-21T17:58:34;14.85;;;8.40;;
32250;SDS011;41295;48.518;9.206;2023-05-21T18:00:37;15.48;;;8.50;;
32250;SDS011;41295;48.518;9.206;2023-05-21T18:02:39;16.70;;;8.95;;
32250;SDS011;41295;48.518;9.206;2023-05-21T18:04:42;15.20;;;8.45;;
32250;SDS011;41295;48.518;9.206;2023-05-21T18:06:45;15.82;;;7.80;;
32250;SDS011;41295;48.518;9.206;2023-05-21T18:08:49;17.23;;;9.48;;
32250;SDS011;41295;48.518;9.206;2023-05-21T18:10:51;14.88;;;10.38;;
32250;SDS011;41295;48.518;9.206;2023-05-21T18:12:54;14.90;;;9.30;;
32250;SDS011;41295;48.518;9.206;2023-05-21T18:14:57;16.45;;;9.95;;
32250;SDS011;41295;48.518;9.206;2023-05-21T18:16:59;16.33;;;9.18;;
32250;SDS011;41295;48.518;9.206;2023-05-21T18:19:02;15.68;;;9.70;;
32250;SDS011;41295;48.518;9.206;2023-05-21T18:21:06;29.38;;;17.02;;
32250;SDS011;41295;48.518;9.206;2023-05-21T18:23:09;21.27;;;12.27;;
32250;SDS011;41295;48.518;9.206;2023-05-21T18:25:14;17.73;;;11.60;;
32250;SDS011;41295;48.518;9.206;2023-05-21T18:27:16;17.85;;;12.55;;
32250;SDS011;41295;48.518;9.206;2023-05-21T18:29:19;15.38;;;11.07;;
32250;SDS011;41295;48.518;9.206;2023-05-21T18:31:22;18.45;;;11.80;;
32250;SDS011;41295;48.518;9.206;2023-05-21T18:33:24;19.65;;;12.27;;
32250;SDS011;41295;48.518;9.206;2023-05-21T18:35:27;16.30;;;11.30;;
32250;SDS011;41295;48.518;9.206;2023-05-21T18:37:33;18.42;;;12.55;;
32250;SDS011;41295;48.518;9.206;2023-05-21T18:39:35;19.67;;;12.25;;
32250;SDS011;41295;48.518;9.206;2023-05-21T18:41:39;16.15;;;11.57;;
32250;SDS011;41295;48.518;9.206;2023-05-21T18:43:42;20.92;;;11.85;;
32250;SDS011;41295;48.518;9.206;2023-05-21T18:45:45;25.13;;;12.57;;
32250;SDS011;41295;48.518;9.206;2023-05-21T18:47:48;19.02;;;12.65;;
32250;SDS011;41295;48.518;9.206;2023-05-21T18:49:50;18.88;;;11.73;;
32250;SDS011;41295;48.518;9.206;2023-05-21T18:51:53;14.75;;;11.05;;
32250;SDS011;41295;48.518;9.206;2023-05-21T18:53:56;18.77;;;12.13;;
32250;SDS011;41295;48.518;9.206;2023-05-21T18:55:59;19.05;;;11.70;;
32250;SDS011;41295;48.518;9.206;2023-05-21T18:58:03;19.92;;;12.65;;
32250;SDS011;41295;48.518;9.206;2023-05-21T19:00:06;20.73;;;13.15;;
32250;SDS011;41295;48.518;9.206;2023-05-21T19:02:09;17.77;;;12.45;;
32250;SDS011;41295;48.518;9.206;2023-05-21T19:04:12;22.45;;;13.65;;
32250;SDS011;41295;48.518;9.206;2023-05-21T19:06:15;25.08;;;15.85;;
32250;SDS011;41295;48.518;9.206;2023-05-21T19:08:18;22.33;;;15.63;;
32250;SDS011;41295;48.518;9.206;2023-05-21T19:10:20;24.15;;;15.23;;
32250;SDS011;41295;48.518;9.206;2023-05-21T19:12:23;19.92;;;14.35;;
32250;SDS011;41295;48.518;9.206;2023-05-21T19:14:27;26.23;;;14.10;;
32250;SDS011;41295;48.518;9.206;2023-05-21T19:16:30;23.95;;;14.93;;
32250;SDS011;41295;48.518;9.206;2023-05-21T19:18:32;28.63;;;15.88;;
32250;SDS011;41295;48.518;9.206;2023-05-21T19:20:35;29.25;;;16.10;;
32250;SDS011;41295;48.518;9.206;2023-05-21T19:22:40;24.45;;;15.52;;
32250;SDS011;41295;48.518;9.206;2023-05-21T19:24:43;25.67;;;16.83;;
32250;SDS011;41295;48.518;9.206;2023-05-21T19:26:47;26.35;;;16.05;;
32250;SDS011;41295;48.518;9.206;2023-05-21T19:28:49;27.65;;;15.90;;
32250;SDS011;41295;48.518;9.206;2023-05-21T19:30:55;21.58;;;14.23;;
32250;SDS011;41295;48.518;9.206;2023-05-21T19:32:58;26.52;;;15.88;;
32250;SDS011;41295;48.518;9.206;2023-05-21T19:35:01;25.13;;;15.50;;
32250;SDS011;41295;48.518;9.206;2023-05-21T19:37:05;22.55;;;14.40;;
32250;SDS011;41295;48.518;9.206;2023-05-21T19:39:08;23.63;;;14.93;;
32250;SDS011;41295;48.518;9.206;2023-05-21T19:41:10;23.50;;;14.25;;
32250;SDS011;41295;48.518;9.206;2023-05-21T19:43:13;23.98;;;13.63;;
32250;SDS011;41295;48.518;9.206;2023-05-21T19:45:16;23.23;;;13.32;;
32250;SDS011;41295;48.518;9.206;2023-05-21T19:47:23;18.75;;;12.90;;
32250;SDS011;41295;48.518;9.206;2023-05-21T19:49:25;18.63;;;13.25;;
32250;SDS011;41295;48.518;9.206;2023-05-21T19:51:28;19.00;;;12.38;;
32250;SDS011;41295;48.518;9.206;2023-05-21T19:53:31;17.58;;;12.35;;
32250;SDS011;41295;48.518;9.206;2023-05-21T19:55:37;16.75;;;12.18;;
32250;SDS011;41295;48.518;9.206;2023-05-21T19:57:39;25.40;;;11.55;;
32250;SDS011;41295;48.518;9.206;2023-05-21T19:59:42;16.67;;;12.60;;
32250;SDS011;41295;48.518;9.206;2023-05-21T20:01:44;17.80;;;12.55;;
32250;SDS011;41295;48.518;9.206;2023-05-21T20:03:48;20.75;;;12.10;;
32250;SDS011;41295;48.518;9.206;2023-05-21T20:05:52;20.10;;;12.38;;
32250;SDS011;41295;48.518;9.206;2023-05-21T20:07:55;19.45;;;13.15;;
32250;SDS011;41295;48.518;9.206;2023-05-21T20:09:58;23.05;;;13.40;;
32250;SDS011;41295;48.518;9.206;2023-05-21T20:12:01;17.63;;;12.98;;
32250;SDS011;41295;48.518;9.206;2023-05-21T20:14:03;18.48;;;13.02;;
32250;SDS011;41295;48.518;9.206;2023-05-21T20:16:06;19.63;;;12.35;;
32250;SDS011;41295;48.518;9.206;2023-05-21T20:18:10;18.80;;;11.90;;
32250;SDS011;41295;48.518;9.206;2023-05-21T20:20:14;17.45;;;12.90;;
32250;SDS011;41295;48.518;9.206;2023-05-21T20:22:18;18.05;;;12.20;;
32250;SDS011;41295;48.518;9.206;2023-05-21T20:24:21;18.98;;;11.55;;
32250;SDS011;41295;48.518;9.206;2023-05-21T20:26:24;19.17;;;12.25;;
32250;SDS011;41295;48.518;9.206;2023-05-21T20:28:27;16.10;;;11.38;;
32250;SDS011;41295;48.518;9.206;2023-05-21T20:30:30;18.65;;;10.60;;
32250;SDS011;41295;48.518;9.206;2023-05-21T20:32:33;15.23;;;11.10;;
32250;SDS011;41295;48.518;9.206;2023-05-21T20:34:36;14.50;;;10.32;;
32250;SDS011;41295;48.518;9.206;2023-05-21T20:36:56;14.70;;;10.00;;
32250;SDS011;41295;48.518;9.206;2023-05-21T20:38:59;16.60;;;9.60;;
32250;SDS011;41295;48.518;9.206;2023-05-21T20:41:03;16.10;;;9.55;;
32250;SDS011;41295;48.518;9.206;2023-05-21T20:43:06;13.55;;;9.20;;
32250;SDS011;41295;48.518;9.206;2023-05-21T20:45:12;11.85;;;8.32;;
32250;SDS011;41295;48.518;9.206;2023-05-21T20:47:16;14.20;;;8.57;;
32250;SDS011;41295;48.518;9.206;2023-05-21T20:49:20;17.08;;;9.55;;
32250;SDS011;41295;48.518;9.206;2023-05-21T20:51:25;12.27;;;8.20;;
32250;SDS011;41295;48.518;9.206;2023-05-21T20:53:29;17.13;;;9.05;;
32250;SDS011;41295;48.518;9.206;2023-05-21T20:55:32;12.20;;;8.88;;
32250;SDS011;41295;48.518;9.206;2023-05-21T20:57:35;28.02;;;9.85;;
32250;SDS011;41295;48.518;9.206;2023-05-21T20:59:38;15.93;;;9.68;;
32250;SDS011;41295;48.518;9.206;2023-05-21T21:01:40;14.45;;;9.30;;
32250;SDS011;41295;48.518;9.206;2023-05-21T21:03:43;15.05;;;9.57;;
32250;SDS011;41295;48.518;9.206;2023-05-21T21:05:46;17.13;;;9.82;;
32250;SDS011;41295;48.518;9.206;2023-05-21T21:07:49;13.40;;;9.45;;
32250;SDS011;41295;48.518;9.206;2023-05-21T21:09:57;11.48;;;8.93;;
32250;SDS011;41295;48.518;9.206;2023-05-21T21:12:00;14.52;;;9.75;;
32250;SDS011;41295;48.518;9.206;2023-05-21T21:14:23;14.40;;;9.43;;
32250;SDS011;41295;48.518;9.206;2023-05-21T21:16:25;11.93;;;9.00;;
32250;SDS011;41295;48.518;9.206;2023-05-21T21:18:28;12.45;;;8.68;;
32250;SDS011;41295;48.518;9.206;2023-05-21T21:20:31;12.77;;;9.27;;
32250;SDS011;41295;48.518;9.206;2023-05-21T21:22:33;15.30;;;9.43;;
32250;SDS011;41295;48.518;9.206;2023-05-21T21:24:36;15.93;;;9.88;;
32250;SDS011;41295;48.518;9.206;2023-05-21T21:26:40;15.05;;;9.63;;
32250;SDS011;41295;48.518;9.206;2023-05-21T21:28:42;15.70;;;9.45;;
32250;SDS011;41295;48.518;9.206;2023-05-21T21:30:46;14.88;;;9.60;;
32250;SDS011;41295;48.518;9.206;2023-05-21T21:32:49;16.80;;;9.82;;
32250;SDS011;41295;48.518;9.206;2023-05-21T21:34:52;13.70;;;9.50;;
32250;SDS011;41295;48.518;9.206;2023-05-21T21:36:54;12.45;;;9.15;;
32250;SDS011;41295;48.518;9.206;2023-05-21T21:38:57;19.63;;;10.60;;
32250;SDS011;41295;48.518;9.206;2023-05-21T21:41:00;13.13;;;9.55;;
32250;SDS011;41295;48.518;9.206;2023-05-21T21:43:04;15.00;;;9.73;;
32250;SDS011;41295;48.518;9.206;2023-05-21T21:45:07;16.85;;;9.98;;
32250;SDS011;41295;48.518;9.206;2023-05-21T21:47:11;12.88;;;9.45;;
32250;SDS011;41295;48.518;9.206;2023-05-21T21:49:13;15.18;;;10.30;;
32250;SDS011;41295;48.518;9.206;2023-05-21T21:51:17;15.95;;;9.10;;
32250;SDS011;41295;48.518;9.206;2023-05-21T21:53:23;12.02;;;9.20;;
32250;SDS011;41295;48.518;9.206;2023-05-21T21:55:26;13.68;;;9.88;;
32250;SDS011;41295;48.518;9.206;2023-05-21T21:57:29;13.88;;;10.20;;
32250;SDS011;41295;48.518;9.206;2023-05-21T21:59:36;17.58;;;9.90;;
32250;SDS011;41295;48.518;9.206;2023-05-21T22:01:39;12.57;;;9.25;;
32250;SDS011;41295;48.518;9.206;2023-05-21T22:03:42;14.80;;;9.52;;
32250;SDS011;41295;48.518;9.206;2023-05-21T22:05:44;13.82;;;10.32;;
32250;SDS011;41295;48.518;9.206;2023-05-21T22:07:47;15.18;;;10.02;;
32250;SDS011;41295;48.518;9.206;2023-05-21T22:09:50;16.65;;;10.63;;
32250;SDS011;41295;48.518;9.206;2023-05-21T22:11:52;15.32;;;10.20;;
32250;SDS011;41295;48.518;9.206;2023-05-21T22:13:55;16.52;;;9.30;;
32250;SDS011;41295;48.518;9.206;2023-05-21T22:15:59;16.35;;;10.55;;
32250;SDS011;41295;48.518;9.206;2023-05-21T22:18:02;17.02;;;9.80;;
32250;SDS011;41295;48.518;9.206;2023-05-21T22:20:05;16.52;;;10.43;;
32250;SDS011;41295;48.518;9.206;2023-05-21T22:22:09;14.77;;;10.00;;
32250;SDS011;41295;48.518;9.206;2023-05-21T22:24:12;15.75;;;10.35;;
32250;SDS011;41295;48.518;9.206;2023-05-21T22:26:32;16.63;;;9.23;;
32250;SDS011;41295;48.518;9.206;2023-05-21T22:28:34;15.57;;;9.85;;
32250;SDS011;41295;48.518;9.206;2023-05-21T22:30:37;15.10;;;9.10;;
32250;SDS011;41295;48.518;9.206;2023-05-21T22:32:41;16.50;;;9.40;;
32250;SDS011;41295;48.518;9.206;2023-05-21T22:34:44;16.77;;;9.68;;
32250;SDS011;41295;48.518;9.206;2023-05-21T22:36:47;15.68;;;9.50;;
32250;SDS011;41295;48.518;9.206;2023-05-21T22:38:49;17.10;;;10.05;;
32250;SDS011;41295;48.518;9.206;2023-05-21T22:40:52;13.52;;;9.48;;
32250;SDS011;41295;48.518;9.206;2023-05-21T22:42:55;14.13;;;9.88;;
32250;SDS011;41295;48.518;9.206;2023-05-21T22:44:57;17.60;;;9.98;;
32250;SDS011;41295;48.518;9.206;2023-05-21T22:47:01;12.88;;;9.10;;
32250;SDS011;41295;48.518;9.206;2023-05-21T22:49:05;15.68;;;10.35;;
32250;SDS011;41295;48.518;9.206;2023-05-21T22:51:10;18.67;;;11.15;;
32250;SDS011;41295;48.518;9.206;2023-05-21T22:53:14;17.55;;;10.30;;
32250;SDS011;41295;48.518;9.206;2023-05-21T22:55:17;21.60;;;9.68;;
32250;SDS011;41295;48.518;9.206;2023-05-21T22:57:20;20.33;;;10.75;;
32250;SDS011;41295;48.518;9.206;2023-05-21T22:59:22;19.30;;;10.40;;
32250;SDS011;41295;48.518;9.206;2023-05-21T23:01:25;16.63;;;10.63;;
32250;SDS011;41295;48.518;9.206;2023-05-21T23:03:28;15.05;;;10.55;;
32250;SDS011;41295;48.518;9.206;2023-05-21T23:05:32;15.07;;;10.25;;
32250;SDS011;41295;48.518;9.206;2023-05-21T23:07:35;14.48;;;10.48;;
32250;SDS011;41295;48.518;9.206;2023-05-21T23:09:37;15.02;;;10.15;;
32250;SDS011;41295;48.518;9.206;2023-05-21T23:11:41;15.25;;;10.93;;
32250;SDS011;41295;48.518;9.206;2023-05-21T23:13:43;17.27;;;10.20;;
32250;SDS011;41295;48.518;9.206;2023-05-21T23:15:46;17.73;;;10.90;;
32250;SDS011;41295;48.518;9.206;2023-05-21T23:17:50;16.50;;;10.82;;
32250;SDS011;41295;48.518;9.206;2023-05-21T23:19:53;16.73;;;11.35;;
32250;SDS011;41295;48.518;9.206;2023-05-21T23:21:57;17.73;;;11.07;;
32250;SDS011;41295;48.518;9.206;2023-05-21T23:24:00;15.45;;;11.13;;
32250;SDS011;41295;48.518;9.206;2023-05-21T23:26:03;14.38;;;10.13;;
32250;SDS011;41295;48.518;9.206;2023-05-21T23:28:06;18.35;;;10.52;;
32250;SDS011;41295;48.518;9.206;2023-05-21T23:30:08;16.77;;;10.93;;
32250;SDS011;41295;48.518;9.206;2023-05-21T23:32:12;16.30;;;10.65;;
32250;SDS011;41295;48.518;9.206;2023-05-21T23:34:14;19.55;;;10.77;;
32250;SDS011;41295;48.518;9.206;2023-05-21T23:36:17;16.02;;;11.02;;
32250;SDS011;41295;48.518;9.206;2023-05-21T23:38:21;15.48;;;11.00;;
32250;SDS011;41295;48.518;9.206;2023-05-21T23:40:26;19.02;;;10.65;;
32250;SDS011;41295;48.518;9.206;2023-05-21T23:42:28;14.60;;;10.63;;
32250;SDS011;41295;48.518;9.206;2023-05-21T23:44:31;13.77;;;10.50;;
32250;SDS011;41295;48.518;9.206;2023-05-21T23:46:34;18.88;;;10.77;;
32250;SDS011;41295;48.518;9.206;2023-05-21T23:48:36;13.23;;;9.90;;
32250;SDS011;41295;48.518;9.206;2023-05-21T23:50:39;14.90;;;10.90;;
32250;SDS011;41295;48.518;9.206;2023-05-21T23:52:42;14.65;;;10.50;;
32250;SDS011;41295;48.518;9.206;2023-05-21T23:54:46;15.18;;;10.27;;
32250;SDS011;41295;48.518;9.206;2023-05-21T23:56:49;13.73;;;10.25;;
32250;SDS011;41295;48.518;9.206;2023-05-21T23:58:51;17.05;;;11.02;;
